Time;durP1;ratioP1;P1;durP2;ratioP2;P2;SDS_P1;SDS_P2;PMS_P1;PMS_P2;Temp;Humidity;BMP_temperature;BMP_pressure;BME280_temperature;BME280_humidity;BME280_pressure;Samples;Min_cycle;Max_cycle;Signal;HPM_P1;HPM_P2
2023/01/09 00:01:46;;;;;;;5.45;2.53;;;;;;;;;;4989831;28;20026;-85
2023/01/09 00:04:13;;;;;;;6.20;3.05;;;;;;;;;;4988328;28;20049;-86
2023/01/09 00:06:42;;;;;;;6.32;3.70;;;;;;;;;;4978457;28;20022;-86
2023/01/09 00:09:08;;;;;;;5.90;3.70;;;;;;;;;;4995910;28;20053;-85
2023/01/09 00:11:34;;;;;;;5.57;3.88;;;;;;;;;;4977782;28;20113;-86
2023/01/09 00:14:01;;;;;;;7.85;4.07;;;;;;;;;;4987848;28;20022;-86
2023/01/09 00:16:27;;;;;;;5.97;3.35;;;;;;;;;;4985808;28;20032;-86
2023/01/09 00:18:53;;;;;;;6.40;3.35;;;;;;;;;;4995507;28;20035;-86
2023/01/09 00:21:20;;;;;;;7.05;4.10;;;;;;;;;;4991224;28;20038;-86
2023/01/09 00:23:46;;;;;;;8.10;3.90;;;;;;;;;;4983445;28;20080;-86
2023/01/09 00:26:15;;;;;;;7.85;4.05;;;;;;;;;;4997537;28;20014;-85
2023/01/09 00:28:42;;;;;;;6.18;3.78;;;;;;;;;;5006823;28;20046;-85
2023/01/09 00:31:08;;;;;;;8.13;4.20;;;;;;;;;;5014476;28;20022;-85
2023/01/09 00:33:36;;;;;;;10.73;4.30;;;;;;;;;;4994141;28;20081;-86
2023/01/09 00:36:02;;;;;;;7.78;4.95;;;;;;;;;;5006581;28;20046;-86
2023/01/09 00:38:28;;;;;;;6.85;4.15;;;;;;;;;;4996552;28;20044;-85
2023/01/09 00:40:55;;;;;;;5.15;3.65;;;;;;;;;;5012115;28;20028;-85
2023/01/09 00:43:23;;;;;;;9.48;5.15;;;;;;;;;;5029622;23;20144;-95
2023/01/09 00:46:07;;;;;;;7.47;5.32;;;;;;;;;;5020090;28;20120;-96
2023/01/09 00:48:34;;;;;;;7.60;5.13;;;;;;;;;;5017270;28;20114;-95
2023/01/09 00:51:16;;;;;;;9.77;5.78;;;;;;;;;;5018160;28;20117;-96
2023/01/09 00:53:43;;;;;;;8.32;5.10;;;;;;;;;;5019631;28;20026;-96
2023/01/09 00:56:24;;;;;;;7.72;4.55;;;;;;;;;;5017752;28;20018;-96
2023/01/09 00:58:53;;;;;;;6.03;4.28;;;;;;;;;;5017713;28;20503;-96
2023/01/09 01:01:20;;;;;;;9.70;4.10;;;;;;;;;;5038267;22;20105;-71
2023/01/09 01:03:46;;;;;;;6.03;4.22;;;;;;;;;;4974543;28;20038;-71
2023/01/09 01:08:57;;;;;;;3.95;2.65;;;;;;;;;;4975320;28;20101;-71
2023/01/09 01:11:23;;;;;;;4.20;2.38;;;;;;;;;;4977597;28;20031;-71
2023/01/09 01:13:50;;;;;;;4.88;2.72;;;;;;;;;;4976013;28;20080;-71
2023/01/09 01:16:17;;;;;;;5.95;2.95;;;;;;;;;;4978242;28;20030;-71
2023/01/09 01:18:43;;;;;;;4.63;2.50;;;;;;;;;;4976365;28;20034;-71
2023/01/09 01:21:11;;;;;;;3.25;2.40;;;;;;;;;;4977212;28;20023;-71
2023/01/09 01:23:37;;;;;;;3.60;2.38;;;;;;;;;;4975291;28;20448;-71
2023/01/09 01:26:07;;;;;;;6.25;2.55;;;;;;;;;;4974001;28;20141;-71
2023/01/09 01:28:34;;;;;;;4.57;2.38;;;;;;;;;;4981421;28;20030;-71
2023/01/09 01:31:00;;;;;;;3.15;2.00;;;;;;;;;;4980490;28;20033;-72
2023/01/09 01:33:26;;;;;;;4.93;2.28;;;;;;;;;;4979746;28;20030;-72
2023/01/09 01:35:59;;;;;;;3.47;2.13;;;;;;;;;;4982093;28;20022;-71
2023/01/09 01:38:25;;;;;;;7.55;2.38;;;;;;;;;;4977691;28;20121;-72
2023/01/09 01:40:52;;;;;;;3.75;2.13;;;;;;;;;;4974488;28;20049;-72
2023/01/09 01:43:18;;;;;;;5.20;2.28;;;;;;;;;;4973795;28;20041;-72
2023/01/09 01:45:45;;;;;;;4.43;2.92;;;;;;;;;;4975456;28;20031;-71
2023/01/09 01:48:14;;;;;;;5.78;2.72;;;;;;;;;;4979221;28;20030;-71
2023/01/09 01:50:49;;;;;;;3.92;2.13;;;;;;;;;;4977124;28;20026;-72
2023/01/09 01:53:17;;;;;;;3.03;2.05;;;;;;;;;;4979142;28;20097;-71
2023/01/09 01:55:53;;;;;;;4.05;2.40;;;;;;;;;;4982870;28;20377;-71
2023/01/09 01:58:20;;;;;;;3.25;2.40;;;;;;;;;;4975751;28;20049;-70
2023/01/09 02:00:47;;;;;;;3.42;2.42;;;;;;;;;;4979134;28;20026;-71
2023/01/09 02:03:17;;;;;;;2.88;2.08;;;;;;;;;;4979208;28;20586;-71
2023/01/09 02:05:43;;;;;;;9.73;2.50;;;;;;;;;;4974137;28;20482;-72
2023/01/09 02:08:10;;;;;;;3.05;2.10;;;;;;;;;;4982884;28;20672;-71
2023/01/09 02:10:37;;;;;;;3.83;2.13;;;;;;;;;;4984804;28;20022;-71
2023/01/09 02:13:03;;;;;;;6.32;1.92;;;;;;;;;;4982626;28;20022;-72
2023/01/09 02:15:34;;;;;;;3.85;2.28;;;;;;;;;;4979332;28;20414;-72
2023/01/09 02:18:16;;;;;;;4.17;2.30;;;;;;;;;;4981577;28;20022;-71
2023/01/09 02:21:02;;;;;;;3.67;2.20;;;;;;;;;;4984830;28;20064;-72
2023/01/09 02:23:47;;;;;;;3.85;2.53;;;;;;;;;;4969924;28;20089;-73
2023/01/09 02:26:28;;;;;;;7.68;2.65;;;;;;;;;;4976579;28;20471;-73
2023/01/09 02:29:07;;;;;;;5.03;1.93;;;;;;;;;;4981917;28;20084;-71
2023/01/09 02:32:11;;;;;;;6.95;2.60;;;;;;;;;;4976745;28;20510;-71
2023/01/09 02:34:40;;;;;;;3.85;2.45;;;;;;;;;;4941602;28;20027;-72
2023/01/09 02:37:19;;;;;;;4.78;2.30;;;;;;;;;;4942880;28;20035;-71
2023/01/09 02:40:08;;;;;;;3.65;2.30;;;;;;;;;;4958545;28;20053;-71
2023/01/09 02:42:35;;;;;;;4.30;2.28;;;;;;;;;;4977720;28;20069;-71
2023/01/09 02:45:01;;;;;;;4.45;2.33;;;;;;;;;;4975404;28;20030;-72
2023/01/09 02:47:30;;;;;;;3.75;2.50;;;;;;;;;;4980863;28;20030;-71
2023/01/09 02:50:02;;;;;;;4.15;2.50;;;;;;;;;;4978160;28;20034;-71
2023/01/09 02:52:46;;;;;;;3.60;2.30;;;;;;;;;;4980443;28;20037;-71
2023/01/09 02:55:23;;;;;;;2.63;2.17;;;;;;;;;;4980120;28;20034;-71
2023/01/09 02:58:03;;;;;;;5.40;2.40;;;;;;;;;;4978714;28;20034;-72
2023/01/09 03:00:32;;;;;;;3.72;2.30;;;;;;;;;;4977314;28;20030;-71
2023/01/09 03:03:05;;;;;;;4.22;2.25;;;;;;;;;;4976513;28;20504;-70
2023/01/09 03:05:53;;;;;;;4.07;2.50;;;;;;;;;;4981817;28;20081;-71
2023/01/09 03:08:20;;;;;;;3.10;1.80;;;;;;;;;;4976050;28;20084;-71
2023/01/09 03:10:53;;;;;;;5.75;2.35;;;;;;;;;;4982298;28;20011;-71
2023/01/09 03:13:22;;;;;;;5.57;2.15;;;;;;;;;;4979565;28;20037;-71
2023/01/09 03:15:50;;;;;;;4.18;2.22;;;;;;;;;;4978100;28;20022;-72
2023/01/09 03:18:19;;;;;;;3.35;2.17;;;;;;;;;;4980501;28;20056;-72
2023/01/09 03:20:46;;;;;;;3.40;2.42;;;;;;;;;;4980601;28;20517;-71
2023/01/09 03:23:12;;;;;;;6.70;2.95;;;;;;;;;;4975591;28;20076;-72
2023/01/09 03:25:38;;;;;;;5.00;2.15;;;;;;;;;;4975058;28;20022;-71
2023/01/09 03:28:06;;;;;;;3.38;2.00;;;;;;;;;;4980018;28;20553;-73
2023/01/09 03:30:33;;;;;;;3.28;2.28;;;;;;;;;;4980796;28;20117;-71
2023/01/09 03:32:59;;;;;;;2.80;2.20;;;;;;;;;;4981794;28;20070;-71
2023/01/09 03:35:26;;;;;;;3.65;2.22;;;;;;;;;;4981347;28;20109;-71
2023/01/09 03:37:52;;;;;;;4.63;2.35;;;;;;;;;;4981067;28;20038;-70
2023/01/09 03:40:19;;;;;;;7.53;2.10;;;;;;;;;;4977768;28;20642;-71
2023/01/09 03:42:45;;;;;;;3.83;1.90;;;;;;;;;;4979902;28;20409;-71
2023/01/09 03:45:11;;;;;;;3.35;2.25;;;;;;;;;;4978782;28;20438;-72
2023/01/09 03:47:37;;;;;;;3.88;2.10;;;;;;;;;;4976290;28;20030;-71
2023/01/09 03:50:04;;;;;;;3.03;2.33;;;;;;;;;;4980278;28;20025;-71
2023/01/09 03:52:30;;;;;;;4.15;2.38;;;;;;;;;;4985832;28;20030;-71
2023/01/09 03:54:56;;;;;;;3.50;2.08;;;;;;;;;;4981620;28;20081;-73
2023/01/09 03:57:25;;;;;;;3.15;1.80;;;;;;;;;;4981005;28;20034;-71
2023/01/09 03:59:51;;;;;;;4.45;2.70;;;;;;;;;;4981659;28;20597;-71
2023/01/09 04:02:18;;;;;;;3.33;2.10;;;;;;;;;;4986947;28;20493;-72
2023/01/09 04:04:44;;;;;;;4.10;2.10;;;;;;;;;;4984318;28;20462;-71
2023/01/09 04:07:10;;;;;;;5.25;2.13;;;;;;;;;;4985248;28;20017;-71
2023/01/09 04:09:36;;;;;;;4.03;2.50;;;;;;;;;;4985184;28;20026;-71
2023/01/09 04:12:03;;;;;;;5.13;2.05;;;;;;;;;;4984940;28;20022;-72
2023/01/09 04:14:29;;;;;;;3.17;2.15;;;;;;;;;;4979993;28;20026;-71
2023/01/09 04:16:55;;;;;;;4.18;2.13;;;;;;;;;;4982791;28;20042;-72
2023/01/09 04:19:21;;;;;;;3.33;2.40;;;;;;;;;;4978977;28;20297;-71
2023/01/09 04:21:47;;;;;;;4.88;2.10;;;;;;;;;;4980539;28;20029;-72
2023/01/09 04:24:14;;;;;;;3.22;1.92;;;;;;;;;;4982580;28;20466;-71
2023/01/09 04:26:40;;;;;;;3.70;1.95;;;;;;;;;;4981992;28;20018;-71
2023/01/09 04:29:06;;;;;;;2.83;2.10;;;;;;;;;;4980321;28;20027;-72
2023/01/09 04:31:32;;;;;;;3.22;2.00;;;;;;;;;;4983128;28;20029;-71
2023/01/09 04:33:58;;;;;;;7.22;2.65;;;;;;;;;;4981606;28;20052;-72
2023/01/09 04:36:24;;;;;;;4.18;2.47;;;;;;;;;;4977923;28;20060;-72
2023/01/09 04:38:50;;;;;;;3.85;2.30;;;;;;;;;;4980235;28;20457;-71
2023/01/09 04:41:47;;;;;;;3.65;2.28;;;;;;;;;;4980742;28;20027;-71
2023/01/09 04:44:03;;;;;;;3.72;2.17;;;;;;;;;;4982209;28;20129;-72
2023/01/09 04:46:29;;;;;;;3.42;2.47;;;;;;;;;;4978124;28;20085;-72
2023/01/09 04:48:55;;;;;;;4.00;2.10;;;;;;;;;;4974353;28;20031;-71
2023/01/09 04:51:21;;;;;;;4.18;1.95;;;;;;;;;;4983839;28;20038;-71
2023/01/09 04:53:48;;;;;;;5.15;1.88;;;;;;;;;;4978504;28;20031;-71
2023/01/09 04:56:14;;;;;;;4.38;2.20;;;;;;;;;;4981723;28;20050;-72
2023/01/09 04:58:40;;;;;;;2.28;1.85;;;;;;;;;;4977784;28;20038;-71
2023/01/09 05:01:06;;;;;;;2.97;1.92;;;;;;;;;;4975217;28;20030;-71
2023/01/09 05:03:32;;;;;;;5.43;2.10;;;;;;;;;;4980138;28;20057;-71
2023/01/09 05:05:58;;;;;;;2.65;1.90;;;;;;;;;;4977558;28;20033;-71
2023/01/09 05:08:24;;;;;;;4.38;2.28;;;;;;;;;;4978722;28;20122;-71
2023/01/09 05:10:51;;;;;;;4.47;2.13;;;;;;;;;;4975020;28;20483;-71
2023/01/09 05:13:17;;;;;;;4.05;1.88;;;;;;;;;;4978084;28;20482;-71
2023/01/09 05:15:43;;;;;;;2.90;2.10;;;;;;;;;;4975354;28;20666;-71
2023/01/09 05:18:09;;;;;;;3.88;2.17;;;;;;;;;;4979286;28;20039;-72
2023/01/09 05:20:36;;;;;;;4.88;2.20;;;;;;;;;;4978725;28;20084;-71
2023/01/09 05:23:02;;;;;;;4.22;1.60;;;;;;;;;;4973208;28;20097;-71
2023/01/09 05:25:28;;;;;;;4.13;1.85;;;;;;;;;;4977687;28;20511;-71
2023/01/09 05:27:54;;;;;;;5.63;2.10;;;;;;;;;;4975236;28;20450;-72
2023/01/09 05:30:20;;;;;;;4.07;2.00;;;;;;;;;;4974182;28;20057;-71
2023/01/09 05:32:47;;;;;;;2.25;1.67;;;;;;;;;;4978092;28;20108;-72
2023/01/09 05:35:13;;;;;;;5.97;1.95;;;;;;;;;;4975700;28;20034;-71
2023/01/09 05:37:39;;;;;;;3.47;2.05;;;;;;;;;;4974551;28;20036;-71
2023/01/09 05:40:05;;;;;;;2.72;1.70;;;;;;;;;;4978295;28;20045;-71
2023/01/09 05:42:32;;;;;;;3.00;1.88;;;;;;;;;;4979064;28;20037;-71
2023/01/09 05:44:58;;;;;;;2.30;1.67;;;;;;;;;;4972781;28;20034;-71
2023/01/09 05:47:24;;;;;;;3.60;1.85;;;;;;;;;;4974104;28;20062;-71
2023/01/09 05:49:50;;;;;;;3.22;1.80;;;;;;;;;;4974525;28;20015;-71
2023/01/09 05:52:16;;;;;;;2.92;1.80;;;;;;;;;;4975195;28;20172;-71
2023/01/09 05:54:42;;;;;;;5.10;2.05;;;;;;;;;;4976938;28;20026;-71
2023/01/09 05:57:08;;;;;;;3.38;1.80;;;;;;;;;;4976497;28;20053;-71
2023/01/09 05:59:35;;;;;;;3.15;1.63;;;;;;;;;;4976689;28;20034;-71
2023/01/09 06:02:01;;;;;;;5.10;1.88;;;;;;;;;;4976662;28;20048;-71
2023/01/09 06:04:28;;;;;;;3.28;1.83;;;;;;;;;;4978116;28;20843;-71
2023/01/09 06:06:55;;;;;;;4.45;2.03;;;;;;;;;;4972833;28;20810;-72
2023/01/09 06:09:21;;;;;;;4.22;1.90;;;;;;;;;;4980254;28;20030;-71
2023/01/09 06:11:47;;;;;;;3.60;2.15;;;;;;;;;;4974082;28;20022;-71
2023/01/09 06:14:13;;;;;;;2.50;1.85;;;;;;;;;;4974874;28;20037;-71
2023/01/09 06:16:39;;;;;;;2.85;1.88;;;;;;;;;;4976270;28;20026;-72
2023/01/09 06:19:06;;;;;;;4.70;2.10;;;;;;;;;;4976689;28;20026;-72
2023/01/09 06:21:32;;;;;;;6.63;2.05;;;;;;;;;;4971960;28;20022;-71
2023/01/09 06:23:58;;;;;;;6.50;1.80;;;;;;;;;;4975662;28;20030;-70
2023/01/09 06:26:25;;;;;;;4.20;2.20;;;;;;;;;;4974568;28;20022;-71
2023/01/09 06:28:54;;;;;;;3.17;1.90;;;;;;;;;;4970471;28;20652;-71
2023/01/09 06:31:21;;;;;;;4.18;2.17;;;;;;;;;;4976281;28;20055;-72
2023/01/09 06:33:47;;;;;;;2.72;1.70;;;;;;;;;;4979982;28;20525;-71
2023/01/09 06:36:13;;;;;;;4.80;2.17;;;;;;;;;;4971951;28;20061;-71
2023/01/09 06:38:40;;;;;;;5.65;2.25;;;;;;;;;;4976468;28;20428;-71
2023/01/09 06:41:06;;;;;;;7.75;2.30;;;;;;;;;;4977311;28;20112;-71
2023/01/09 06:43:32;;;;;;;4.05;2.20;;;;;;;;;;4975817;28;20088;-71
2023/01/09 06:45:58;;;;;;;3.95;2.55;;;;;;;;;;4974951;28;20026;-71
2023/01/09 06:48:24;;;;;;;3.33;2.08;;;;;;;;;;4976265;28;20045;-71
2023/01/09 06:50:51;;;;;;;4.80;2.53;;;;;;;;;;4976233;28;20029;-72
2023/01/09 06:53:17;;;;;;;5.85;2.60;;;;;;;;;;4972039;28;20023;-71
2023/01/09 06:55:44;;;;;;;4.80;2.00;;;;;;;;;;4974712;28;20109;-72
2023/01/09 06:58:11;;;;;;;3.00;2.00;;;;;;;;;;4974763;28;20100;-71
2023/01/09 07:00:37;;;;;;;4.43;2.20;;;;;;;;;;4974494;28;20531;-71
2023/01/09 07:03:04;;;;;;;4.95;1.90;;;;;;;;;;4973417;28;20065;-71
2023/01/09 07:05:30;;;;;;;4.50;2.25;;;;;;;;;;4975419;28;20093;-72
2023/01/09 07:07:56;;;;;;;3.95;2.13;;;;;;;;;;4973172;28;20102;-71
2023/01/09 07:10:23;;;;;;;5.55;1.90;;;;;;;;;;4969448;28;20058;-71
2023/01/09 07:12:49;;;;;;;2.92;1.70;;;;;;;;;;4978851;28;20033;-71
2023/01/09 07:15:15;;;;;;;2.88;1.90;;;;;;;;;;4979662;28;20092;-71
2023/01/09 07:17:41;;;;;;;4.65;2.15;;;;;;;;;;4979607;28;20093;-71
2023/01/09 07:20:08;;;;;;;4.60;1.88;;;;;;;;;;4975931;28;20038;-71
2023/01/09 07:22:34;;;;;;;3.67;1.70;;;;;;;;;;4970225;28;20037;-71
2023/01/09 07:25:00;;;;;;;5.22;2.08;;;;;;;;;;4974436;28;20030;-71
2023/01/09 07:27:26;;;;;;;5.90;1.95;;;;;;;;;;4974755;28;21137;-71
2023/01/09 07:29:52;;;;;;;6.50;2.00;;;;;;;;;;4976815;28;20080;-71
2023/01/09 07:32:19;;;;;;;3.60;1.70;;;;;;;;;;4972261;28;20023;-71
2023/01/09 07:34:45;;;;;;;2.58;1.77;;;;;;;;;;4976473;28;20466;-71
2023/01/09 07:37:11;;;;;;;7.10;1.98;;;;;;;;;;4973641;28;20022;-71
2023/01/09 07:39:37;;;;;;;4.25;1.90;;;;;;;;;;4977832;28;20109;-71
2023/01/09 07:42:03;;;;;;;4.03;1.98;;;;;;;;;;4977872;28;20045;-71
2023/01/09 07:44:30;;;;;;;3.15;1.90;;;;;;;;;;4977950;28;20125;-71
2023/01/09 07:46:56;;;;;;;4.50;2.42;;;;;;;;;;4978935;28;20019;-71
2023/01/09 07:49:22;;;;;;;4.25;1.90;;;;;;;;;;4975908;28;20022;-72
2023/01/09 07:51:48;;;;;;;4.43;2.10;;;;;;;;;;4977503;28;20030;-71
2023/01/09 07:54:15;;;;;;;3.40;1.80;;;;;;;;;;4973119;28;20019;-71
2023/01/09 07:56:41;;;;;;;4.22;1.98;;;;;;;;;;4972651;28;20038;-72
2023/01/09 07:59:07;;;;;;;4.85;1.92;;;;;;;;;;4980885;28;20029;-71
2023/01/09 08:01:33;;;;;;;3.92;2.00;;;;;;;;;;4972100;28;20053;-71
2023/01/09 08:03:59;;;;;;;5.70;2.22;;;;;;;;;;4974809;28;20652;-71
2023/01/09 08:06:25;;;;;;;3.33;1.80;;;;;;;;;;4971796;28;20031;-72
2023/01/09 08:08:52;;;;;;;3.40;2.05;;;;;;;;;;4975131;28;20026;-71
2023/01/09 08:11:18;;;;;;;4.38;2.22;;;;;;;;;;4977496;28;20060;-71
2023/01/09 08:13:44;;;;;;;4.30;2.42;;;;;;;;;;4976151;28;20023;-71
2023/01/09 08:16:10;;;;;;;4.40;2.20;;;;;;;;;;4972487;28;20026;-71
2023/01/09 08:18:36;;;;;;;4.50;2.10;;;;;;;;;;4974446;28;20038;-71
2023/01/09 08:21:02;;;;;;;3.20;1.90;;;;;;;;;;4971549;28;20028;-71
2023/01/09 08:23:28;;;;;;;7.22;2.15;;;;;;;;;;4971161;28;20039;-72
2023/01/09 08:25:54;;;;;;;3.10;1.83;;;;;;;;;;4969842;28;20030;-71
2023/01/09 08:28:21;;;;;;;2.30;1.67;;;;;;;;;;4975350;28;20035;-72
2023/01/09 08:30:47;;;;;;;3.92;2.60;;;;;;;;;;4974888;28;20030;-71
2023/01/09 08:33:13;;;;;;;4.20;2.10;;;;;;;;;;4973767;28;20545;-71
2023/01/09 08:35:39;;;;;;;6.70;2.20;;;;;;;;;;4975997;28;20884;-71
2023/01/09 08:38:05;;;;;;;3.45;1.80;;;;;;;;;;4979866;28;20546;-71
2023/01/09 08:40:31;;;;;;;4.43;1.90;;;;;;;;;;4981257;28;20109;-72
2023/01/09 08:47:04;;;;;;;3.30;1.85;;;;;;;;;;4981542;28;20041;-71
2023/01/09 08:48:47;;;;;;;4.30;2.17;;;;;;;;;;4976946;28;20050;-71
2023/01/09 08:51:13;;;;;;;6.93;2.00;;;;;;;;;;4975758;28;20090;-71
2023/01/09 08:53:39;;;;;;;4.78;2.38;;;;;;;;;;4976690;28;20038;-71
2023/01/09 08:56:05;;;;;;;5.15;2.08;;;;;;;;;;4977161;28;20066;-71
2023/01/09 08:58:32;;;;;;;3.50;2.20;;;;;;;;;;4978158;28;20042;-71
2023/01/09 09:00:58;;;;;;;5.97;2.67;;;;;;;;;;4978513;28;20032;-71
2023/01/09 09:03:24;;;;;;;7.40;2.30;;;;;;;;;;4974042;28;20050;-71
2023/01/09 09:05:50;;;;;;;6.20;1.95;;;;;;;;;;4979532;28;20884;-71
2023/01/09 09:08:17;;;;;;;8.13;1.90;;;;;;;;;;4975544;28;20018;-71
2023/01/09 09:10:43;;;;;;;4.97;1.83;;;;;;;;;;4980911;28;20034;-70
2023/01/09 09:13:09;;;;;;;2.47;1.88;;;;;;;;;;4979707;28;20018;-70
2023/01/09 09:15:36;;;;;;;2.80;1.95;;;;;;;;;;4979320;28;20594;-71
2023/01/09 09:18:04;;;;;;;8.45;1.95;;;;;;;;;;4979976;28;20038;-71
2023/01/09 09:20:34;;;;;;;7.20;2.60;;;;;;;;;;4979963;28;20030;-71
2023/01/09 09:23:00;;;;;;;3.25;2.13;;;;;;;;;;4978462;28;20521;-71
2023/01/09 09:25:27;;;;;;;3.72;2.03;;;;;;;;;;4973731;28;20704;-71
2023/01/09 09:27:56;;;;;;;3.33;1.80;;;;;;;;;;4978559;28;20540;-71
2023/01/09 09:30:23;;;;;;;7.20;2.05;;;;;;;;;;4973165;28;21788;-71
2023/01/09 09:32:49;;;;;;;5.93;2.15;;;;;;;;;;4977661;28;20030;-71
2023/01/09 09:35:19;;;;;;;5.60;2.08;;;;;;;;;;4979959;28;20077;-71
2023/01/09 09:37:56;;;;;;;6.68;2.15;;;;;;;;;;4979086;28;20037;-72
2023/01/09 09:40:46;;;;;;;5.20;2.33;;;;;;;;;;4975743;28;20093;-71
2023/01/09 09:46:41;;;;;;;6.90;2.40;;;;;;;;;;4960358;28;20053;-71
2023/01/09 09:49:14;;;;;;;5.90;2.20;;;;;;;;;;4976344;28;20130;-72
2023/01/09 09:51:56;;;;;;;7.10;2.67;;;;;;;;;;4973198;28;20102;-71
2023/01/09 09:54:33;;;;;;;6.88;2.28;;;;;;;;;;4976029;28;20034;-71
2023/01/09 09:57:01;;;;;;;7.13;2.55;;;;;;;;;;4973078;28;20034;-71
2023/01/09 09:59:32;;;;;;;6.65;2.50;;;;;;;;;;4978045;28;20042;-71
2023/01/09 10:02:10;;;;;;;6.35;2.60;;;;;;;;;;4980071;28;20031;-71
2023/01/09 10:04:40;;;;;;;7.00;2.70;;;;;;;;;;4976430;28;20137;-71
2023/01/09 10:07:10;;;;;;;5.40;2.55;;;;;;;;;;4976324;28;20080;-70
2023/01/09 10:09:56;;;;;;;11.32;2.90;;;;;;;;;;4977458;28;20038;-70
2023/01/09 10:12:28;;;;;;;7.47;2.60;;;;;;;;;;4971231;28;20027;-70
2023/01/09 10:14:56;;;;;;;6.55;2.70;;;;;;;;;;4979483;28;20030;-71
2023/01/09 10:17:22;;;;;;;5.93;2.70;;;;;;;;;;4977658;28;20038;-71
2023/01/09 10:19:54;;;;;;;8.25;3.10;;;;;;;;;;4975042;28;20039;-71
2023/01/09 10:22:20;;;;;;;;;;;;;;;;;;4978993;28;20102;-71
2023/01/09 10:24:57;;;;;;;6.20;2.40;;;;;;;;;;4973743;28;19957;-71
2023/01/09 10:27:34;;;;;;;4.30;2.58;;;;;;;;;;4974959;28;20038;-71
2023/01/09 10:30:29;;;;;;;7.82;2.25;;;;;;;;;;4977265;28;20310;-71
2023/01/09 10:33:01;;;;;;;5.43;3.20;;;;;;;;;;4970677;28;20495;-71
2023/01/09 10:35:46;;;;;;;7.07;2.80;;;;;;;;;;4978260;28;20715;-71
2023/01/09 10:38:14;;;;;;;4.95;2.35;;;;;;;;;;4977654;28;20698;-71
2023/01/09 10:40:51;;;;;;;4.47;2.45;;;;;;;;;;4978059;28;20030;-72
2023/01/09 10:43:27;;;;;;;8.38;2.83;;;;;;;;;;4978489;28;20597;-71
2023/01/09 10:45:57;;;;;;;7.82;2.50;;;;;;;;;;4976058;28;20026;-71
2023/01/09 10:48:29;;;;;;;6.78;3.00;;;;;;;;;;4975866;28;20085;-71
2023/01/09 10:50:56;;;;;;;5.00;2.70;;;;;;;;;;4974204;28;20045;-71
2023/01/09 10:53:25;;;;;;;8.00;2.50;;;;;;;;;;4976440;28;20038;-72
2023/01/09 10:55:53;;;;;;;7.15;2.70;;;;;;;;;;4974369;28;20018;-71
2023/01/09 10:58:20;;;;;;;6.00;2.67;;;;;;;;;;4977599;28;20236;-71
2023/01/09 11:00:47;;;;;;;5.35;3.08;;;;;;;;;;4969177;28;20732;-71
2023/01/09 11:03:14;;;;;;;9.82;3.03;;;;;;;;;;4976361;28;20502;-71
2023/01/09 11:05:40;;;;;;;10.50;3.20;;;;;;;;;;4975119;28;20019;-71
2023/01/09 11:08:12;;;;;;;11.07;2.58;;;;;;;;;;4976929;28;20105;-71
2023/01/09 11:10:46;;;;;;;5.57;2.70;;;;;;;;;;4973230;28;20509;-71
2023/01/09 11:13:14;;;;;;;5.85;3.20;;;;;;;;;;4965976;28;20738;-71
2023/01/09 11:15:40;;;;;;;6.97;3.10;;;;;;;;;;4971749;28;20026;-71
2023/01/09 11:18:17;;;;;;;10.85;2.90;;;;;;;;;;4972942;28;20121;-71
2023/01/09 11:20:43;;;;;;;5.18;2.90;;;;;;;;;;4966797;28;20088;-71
2023/01/09 11:23:23;;;;;;;6.88;2.80;;;;;;;;;;4970954;28;20036;-71
2023/01/09 11:25:57;;;;;;;5.60;3.08;;;;;;;;;;4975761;28;20034;-71
2023/01/09 11:28:23;;;;;;;15.98;3.60;;;;;;;;;;4971386;28;20038;-71
2023/01/09 11:30:53;;;;;;;8.15;3.15;;;;;;;;;;4973200;28;20157;-71
2023/01/09 11:33:23;;;;;;;9.70;3.88;;;;;;;;;;4978388;28;20141;-71
2023/01/09 11:36:12;;;;;;;6.10;2.72;;;;;;;;;;4968651;28;20038;-71
2023/01/09 11:38:47;;;;;;;8.40;2.67;;;;;;;;;;4969372;28;20088;-71
2023/01/09 11:41:21;;;;;;;10.52;3.05;;;;;;;;;;4974170;28;20022;-71
2023/01/09 11:43:49;;;;;;;5.30;2.53;;;;;;;;;;4975495;28;20081;-71
2023/01/09 11:46:32;;;;;;;11.27;3.22;;;;;;;;;;4972172;28;20105;-71
2023/01/09 11:48:59;;;;;;;7.22;2.97;;;;;;;;;;4971425;28;20022;-71
2023/01/09 11:51:27;;;;;;;7.15;2.78;;;;;;;;;;4977485;28;20030;-70
2023/01/09 11:53:56;;;;;;;7.50;2.95;;;;;;;;;;4973063;28;20027;-71
2023/01/09 11:56:22;;;;;;;7.13;2.80;;;;;;;;;;4972609;28;20186;-71
2023/01/09 11:58:48;;;;;;;6.80;2.70;;;;;;;;;;4969947;28;20492;-70
2023/01/09 12:01:28;;;;;;;7.35;2.67;;;;;;;;;;4975543;28;20489;-71
2023/01/09 12:04:13;;;;;;;5.82;2.45;;;;;;;;;;4970711;28;20133;-72
2023/01/09 12:06:39;;;;;;;7.32;2.63;;;;;;;;;;4970872;28;20446;-72
2023/01/09 12:09:06;;;;;;;6.57;2.67;;;;;;;;;;4975790;28;20549;-72
2023/01/09 12:11:37;;;;;;;9.23;2.50;;;;;;;;;;4972589;28;20066;-71
2023/01/09 12:14:12;;;;;;;6.15;2.65;;;;;;;;;;4973645;28;20114;-72
2023/01/09 12:16:57;;;;;;;4.50;2.40;;;;;;;;;;4971033;28;20049;-71
2023/01/09 12:19:23;;;;;;;3.38;2.47;;;;;;;;;;4975260;28;20042;-72
2023/01/09 12:21:57;;;;;;;6.93;2.67;;;;;;;;;;4975636;28;20051;-72
2023/01/09 12:24:27;;;;;;;6.07;2.53;;;;;;;;;;4972011;28;20026;-72
2023/01/09 12:26:53;;;;;;;6.20;2.72;;;;;;;;;;4979827;28;20265;-72
2023/01/09 12:29:25;;;;;;;5.10;2.60;;;;;;;;;;4976527;28;20044;-72
2023/01/09 12:32:08;;;;;;;8.07;3.03;;;;;;;;;;4977485;28;20096;-72
2023/01/09 12:34:34;;;;;;;7.55;3.17;;;;;;;;;;4978653;28;20034;-71
2023/01/09 12:37:00;;;;;;;10.57;3.60;;;;;;;;;;4972909;28;20019;-71
2023/01/09 12:39:36;;;;;;;7.78;3.35;;;;;;;;;;4975221;28;20038;-71
2023/01/09 12:42:02;;;;;;;8.07;3.25;;;;;;;;;;4976043;28;20031;-71
2023/01/09 12:44:48;;;;;;;7.47;3.05;;;;;;;;;;4975619;28;20014;-71
2023/01/09 12:47:15;;;;;;;11.68;3.47;;;;;;;;;;4976684;28;20675;-71
2023/01/09 12:49:46;;;;;;;6.32;3.28;;;;;;;;;;4972188;28;20084;-71
2023/01/09 12:52:21;;;;;;;8.65;3.00;;;;;;;;;;4969880;28;20019;-70
2023/01/09 12:55:01;;;;;;;6.35;3.15;;;;;;;;;;4971827;28;20233;-70
2023/01/09 12:57:31;;;;;;;8.63;3.35;;;;;;;;;;4977428;28;20026;-71
2023/01/09 13:00:00;;;;;;;9.00;3.67;;;;;;;;;;4974711;28;20046;-71
2023/01/09 13:02:32;;;;;;;11.38;3.65;;;;;;;;;;4975278;28;20127;-71
2023/01/09 13:05:10;;;;;;;9.02;3.67;;;;;;;;;;4974106;28;20070;-71
2023/01/09 13:07:46;;;;;;;4.68;2.85;;;;;;;;;;4977813;28;20030;-72
2023/01/09 13:10:29;;;;;;;7.60;2.95;;;;;;;;;;4973715;28;20101;-71
2023/01/09 13:13:05;;;;;;;6.95;3.33;;;;;;;;;;4972894;28;20110;-71
2023/01/09 13:15:34;;;;;;;7.43;3.60;;;;;;;;;;4979672;28;20443;-71
2023/01/09 13:18:19;;;;;;;12.70;3.15;;;;;;;;;;4971870;28;20501;-71
2023/01/09 13:20:47;;;;;;;8.73;3.28;;;;;;;;;;4976608;28;20057;-71
2023/01/09 13:23:22;;;;;;;6.40;3.15;;;;;;;;;;4969500;28;20039;-71
2023/01/09 13:25:51;;;;;;;7.95;3.35;;;;;;;;;;4975736;28;20048;-71
2023/01/09 13:28:37;;;;;;;13.27;3.83;;;;;;;;;;4975100;28;20232;-71
2023/01/09 13:31:12;;;;;;;11.63;3.42;;;;;;;;;;4973198;28;20037;-72
2023/01/09 13:33:39;;;;;;;11.15;3.38;;;;;;;;;;4973467;28;20030;-71
2023/01/09 13:36:06;;;;;;;10.85;3.40;;;;;;;;;;4976681;28;20088;-71
2023/01/09 13:38:33;;;;;;;9.75;3.15;;;;;;;;;;4976836;28;20125;-71
2023/01/09 13:43:54;;;;;;;8.15;3.25;;;;;;;;;;4972631;28;20045;-71
2023/01/09 13:46:20;;;;;;;11.35;3.65;;;;;;;;;;4978625;28;20054;-71
2023/01/09 13:48:47;;;;;;;8.38;3.15;;;;;;;;;;4975489;28;20034;-71
2023/01/09 13:51:32;;;;;;;7.50;3.50;;;;;;;;;;4979098;28;20104;-73
2023/01/09 13:53:58;;;;;;;7.88;4.18;;;;;;;;;;4970624;28;20039;-72
2023/01/09 13:56:24;;;;;;;8.13;4.00;;;;;;;;;;4974100;28;20030;-71
2023/01/09 13:59:01;;;;;;;10.43;3.70;;;;;;;;;;4971395;28;20038;-74
2023/01/09 14:01:34;;;;;;;7.55;3.60;;;;;;;;;;4974112;28;20060;-73
2023/01/09 14:04:10;;;;;;;9.88;3.45;;;;;;;;;;4978235;28;20137;-71
2023/01/09 14:06:36;;;;;;;13.85;4.10;;;;;;;;;;4972281;28;20054;-71
2023/01/09 14:09:22;;;;;;;13.07;3.60;;;;;;;;;;4972654;28;20019;-71
2023/01/09 14:11:49;;;;;;;8.82;3.30;;;;;;;;;;4971971;28;20029;-71
2023/01/09 14:14:42;;;;;;;13.38;4.15;;;;;;;;;;4976178;28;20072;-71
2023/01/09 14:17:16;;;;;;;9.95;4.15;;;;;;;;;;4973369;28;20124;-71
2023/01/09 14:19:42;;;;;;;16.75;4.32;;;;;;;;;;4972583;28;20080;-73
2023/01/09 14:22:22;;;;;;;11.55;4.60;;;;;;;;;;4974125;28;20030;-72
2023/01/09 14:24:51;;;;;;;8.82;3.83;;;;;;;;;;4973894;28;20548;-73
2023/01/09 14:27:36;;;;;;;7.78;3.35;;;;;;;;;;4973681;28;20034;-72
2023/01/09 14:30:21;;;;;;;9.52;3.17;;;;;;;;;;4977706;28;20134;-72
2023/01/09 14:32:56;;;;;;;4.57;2.42;;;;;;;;;;4975609;28;20026;-72
2023/01/09 14:35:28;;;;;;;6.07;2.40;;;;;;;;;;4974832;28;20027;-71
2023/01/09 14:38:14;;;;;;;7.40;2.35;;;;;;;;;;4974782;28;20499;-72
2023/01/09 14:40:45;;;;;;;7.28;2.63;;;;;;;;;;4971953;28;20018;-72
2023/01/09 14:43:15;;;;;;;4.15;2.15;;;;;;;;;;4976491;28;20022;-72
2023/01/09 14:45:43;;;;;;;4.82;1.60;;;;;;;;;;4975094;28;20379;-72
2023/01/09 14:48:12;;;;;;;11.20;2.72;;;;;;;;;;4967925;28;20495;-72
2023/01/09 14:50:45;;;;;;;6.15;3.20;;;;;;;;;;4971757;28;20117;-72
2023/01/09 14:53:25;;;;;;;8.23;3.00;;;;;;;;;;4967149;28;20030;-72
2023/01/09 14:55:56;;;;;;;8.57;2.80;;;;;;;;;;4970476;28;20061;-72
2023/01/09 14:58:27;;;;;;;12.60;2.97;;;;;;;;;;4974204;28;20463;-72
2023/01/09 15:01:03;;;;;;;6.82;2.58;;;;;;;;;;4976915;28;20103;-71
2023/01/09 15:03:31;;;;;;;8.32;2.00;;;;;;;;;;4972949;28;20150;-71
2023/01/09 15:05:58;;;;;;;5.95;2.30;;;;;;;;;;4972246;28;20386;-71
2023/01/09 15:08:26;;;;;;;7.88;2.05;;;;;;;;;;4971992;28;20027;-71
2023/01/09 15:10:53;;;;;;;8.57;2.75;;;;;;;;;;4976875;28;20029;-72